Time;durP1;ratioP1;P1;durP2;ratioP2;P2;SDS_P1;SDS_P2;PMS_P1;PMS_P2;Temp;Humidity;BMP_temperature;BMP_pressure;BME280_temperature;BME280_humidity;BME280_pressure;Samples;Min_cycle;Max_cycle;Signal;HPM_P1;HPM_P2
2023/02/02 00:02:27;;;;;;;16.83;3.28;;;;;;;7.54;100.00;101995.69;2614087;36;20069;-54
2023/02/02 00:04:57;;;;;;;17.70;3.25;;;;;;;7.57;100.00;101986.59;2613720;36;20566;-53
2023/02/02 00:07:26;;;;;;;17.77;3.15;;;;;;;7.69;100.00;101983.22;2614473;36;20108;-51
2023/02/02 00:09:54;;;;;;;17.60;3.45;;;;;;;7.63;100.00;101979.06;2614308;36;20424;-54
2023/02/02 00:12:22;;;;;;;15.65;3.55;;;;;;;7.66;100.00;101994.13;2614239;36;20094;-52
2023/02/02 00:14:53;;;;;;;22.00;3.58;;;;;;;7.66;100.00;101989.63;2613087;36;20035;-53
2023/02/02 00:17:21;;;;;;;23.23;4.43;;;;;;;7.65;100.00;101987.88;2612291;36;20619;-51
2023/02/02 00:19:50;;;;;;;10.05;2.55;;;;;;;7.67;100.00;101991.34;2614659;36;20066;-53
2023/02/02 00:22:18;;;;;;;20.05;3.28;;;;;;;7.60;100.00;101987.28;2615552;31;20042;-53
2023/02/02 00:24:49;;;;;;;10.57;2.63;;;;;;;7.67;100.00;101996.72;2613531;54;20050;-52
2023/02/02 00:27:17;;;;;;;18.92;3.15;;;;;;;7.68;100.00;101990.38;2615408;36;20033;-53
2023/02/02 00:29:46;;;;;;;24.85;3.97;;;;;;;7.66;100.00;101989.63;2614592;36;20062;-55
2023/02/02 00:32:17;;;;;;;17.25;3.97;;;;;;;7.63;100.00;101984.44;2613760;31;20133;-52
2023/02/02 00:34:45;;;;;;;19.92;3.03;;;;;;;7.70;100.00;101985.81;2614103;36;20039;-50
2023/02/02 00:37:15;;;;;;;19.17;3.40;;;;;;;7.77;100.00;101991.66;2614867;36;20034;-53
2023/02/02 00:39:44;;;;;;;19.88;3.58;;;;;;;7.82;100.00;101988.72;2615004;36;20043;-53
2023/02/02 00:42:13;;;;;;;22.13;2.78;;;;;;;7.72;100.00;101985.72;2615740;31;20539;-54
2023/02/02 00:47:25;;;;;;;20.33;4.57;;;;;;;7.66;100.00;101986.06;2614328;36;20030;-49
2023/02/02 00:49:53;;;;;;;21.98;4.18;;;;;;;7.69;100.00;101983.22;2614006;36;20046;-52
2023/02/02 00:52:21;;;;;;;15.50;3.75;;;;;;;7.68;100.00;101987.69;2614759;36;20060;-51
2023/02/02 00:54:50;;;;;;;14.68;3.25;;;;;;;7.70;100.00;101983.13;2614930;36;20027;-53
2023/02/02 00:57:18;;;;;;;18.10;2.97;;;;;;;7.77;100.00;101985.44;2613429;36;20042;-52
2023/02/02 00:59:46;;;;;;;13.37;3.03;;;;;;;7.76;100.00;101994.41;2614270;36;20035;-55
2023/02/02 01:02:15;;;;;;;18.88;3.33;;;;;;;7.78;100.00;101996.06;2613776;36;20045;-51
2023/02/02 01:04:46;;;;;;;17.27;3.30;;;;;;;7.63;100.00;101995.16;2612987;36;20045;-51
2023/02/02 01:07:14;;;;;;;23.90;3.38;;;;;;;7.72;100.00;101999.13;2614215;36;20073;-55
2023/02/02 01:09:42;;;;;;;14.60;3.05;;;;;;;7.69;100.00;101997.47;2615203;36;20039;-54
2023/02/02 01:12:11;;;;;;;14.90;2.85;;;;;;;7.65;100.00;101995.91;2613017;36;20141;-56
2023/02/02 01:14:39;;;;;;;18.48;2.92;;;;;;;7.63;100.00;101992.47;2613687;36;20042;-54
2023/02/02 01:17:07;;;;;;;14.20;2.22;;;;;;;7.60;100.00;101998.00;2614030;36;20046;-51
2023/02/02 01:19:36;;;;;;;11.38;2.10;;;;;;;7.59;100.00;102014.19;2614576;36;20034;-54
2023/02/02 01:22:07;;;;;;;11.57;2.47;;;;;;;7.58;100.00;102007.09;2613787;36;20038;-54
2023/02/02 01:24:35;;;;;;;11.95;2.22;;;;;;;7.63;100.00;101995.16;2614278;36;20283;-57
2023/02/02 01:27:04;;;;;;;8.20;1.80;;;;;;;7.67;100.00;101996.72;2611511;36;20065;-54
2023/02/02 01:29:32;;;;;;;12.50;2.20;;;;;;;7.64;100.00;102004.94;2614372;36;20027;-54
2023/02/02 01:32:00;;;;;;;7.18;2.25;;;;;;;7.58;100.00;102005.25;2613842;36;20034;-54
2023/02/02 01:34:29;;;;;;;14.40;2.33;;;;;;;7.57;100.00;102005.34;2613813;36;20072;-54
2023/02/02 01:36:57;;;;;;;12.10;1.90;;;;;;;7.53;100.00;102000.16;2616064;36;20443;-52
2023/02/02 01:39:28;;;;;;;10.32;1.60;;;;;;;7.71;100.00;102002.75;2615806;36;20057;-55
2023/02/02 01:41:56;;;;;;;6.93;1.80;;;;;;;7.74;100.00;101999.03;2614909;36;20606;-51
2023/02/02 01:45:09;;;;;;;15.82;2.72;;;;;;;7.79;100.00;102004.97;2614175;36;20038;-52
2023/02/02 01:47:41;;;;;;;9.55;1.60;;;;;;;7.76;100.00;102013.19;2613395;36;20094;-52
2023/02/02 01:50:12;;;;;;;9.13;1.77;;;;;;;7.76;100.00;102011.38;2615320;36;20415;-56
2023/02/02 01:52:41;;;;;;;10.48;1.83;;;;;;;7.68;100.00;101995.72;2616369;31;20026;-54
2023/02/02 01:55:16;;;;;;;9.15;1.50;;;;;;;7.68;100.00;102002.91;2616289;36;20084;-53
2023/02/02 01:57:48;;;;;;;9.80;1.45;;;;;;;7.61;100.00;102002.44;2615933;36;20559;-52
2023/02/02 02:00:23;;;;;;;8.32;1.60;;;;;;;7.66;100.00;102000.31;2616589;36;20435;-53
2023/02/02 02:02:53;;;;;;;7.30;1.48;;;;;;;7.63;100.00;101997.84;2614147;36;20038;-50
2023/02/02 02:05:30;;;;;;;11.00;1.38;;;;;;;7.59;100.00;102014.19;2616131;36;20030;-55
2023/02/02 02:08:05;;;;;;;5.45;1.50;;;;;;;7.61;100.00;102015.81;2615457;36;20046;-57
2023/02/02 02:10:36;;;;;;;2.22;1.23;;;;;;;7.74;100.00;102010.59;2615033;36;20026;-55
2023/02/02 02:13:06;;;;;;;8.00;1.40;;;;;;;7.52;100.00;102019.00;2616170;36;20044;-53
2023/02/02 02:18:32;;;;;;;9.15;1.60;;;;;;;7.56;100.00;102015.22;2615339;31;20046;-52
2023/02/02 02:27:49;;;;;;;5.47;1.48;;;;;;;7.52;100.00;102002.94;2616136;36;20029;-50
2023/02/02 02:30:52;;;;;;;15.18;1.70;;;;;;;7.52;100.00;102002.94;2616125;36;20455;-53
2023/02/02 02:33:27;;;;;;;8.80;1.73;;;;;;;7.56;100.00;101998.28;2614245;36;20559;-53
2023/02/02 02:36:04;;;;;;;9.63;1.80;;;;;;;7.49;100.00;101998.63;2615942;36;20045;-55
2023/02/02 02:38:39;;;;;;;2.92;1.23;;;;;;;7.61;100.00;101991.72;2615774;36;20030;-50
2023/02/02 02:41:13;;;;;;;11.13;2.33;;;;;;;7.53;100.00;101988.59;2615821;36;20042;-53
2023/02/02 02:43:45;;;;;;;8.20;2.60;;;;;;;7.50;100.00;101989.63;2616121;31;20022;-52
2023/02/02 02:46:14;;;;;;;8.65;2.17;;;;;;;7.49;100.00;101979.00;2615383;36;20046;-55
2023/02/02 02:48:49;;;;;;;12.43;3.38;;;;;;;7.44;100.00;101989.13;2614616;31;20598;-53
2023/02/02 02:51:43;;;;;;;8.02;2.72;;;;;;;7.35;100.00;101996.72;2615481;36;20057;-57
2023/02/02 02:54:13;;;;;;;7.57;2.70;;;;;;;7.39;100.00;101999.22;2615627;36;20023;-55
2023/02/02 02:56:54;;;;;;;11.18;3.97;;;;;;;7.43;100.00;102000.78;2615850;36;20037;-55
2023/02/02 02:59:32;;;;;;;7.85;2.60;;;;;;;7.48;100.00;101996.03;2615530;36;20447;-49
2023/02/02 03:02:15;;;;;;;5.82;2.30;;;;;;;7.48;100.00;102006.72;2615337;36;20039;-51
2023/02/02 03:04:53;;;;;;;10.77;2.78;;;;;;;7.52;100.00;102008.28;2614168;36;20147;-55
2023/02/02 03:07:27;;;;;;;8.70;2.85;;;;;;;7.52;100.00;102009.19;2615633;36;20041;-54
2023/02/02 03:10:00;;;;;;;9.77;2.97;;;;;;;7.60;100.00;102013.22;2615187;31;20038;-54
2023/02/02 03:12:28;;;;;;;11.65;3.40;;;;;;;7.56;100.00;102023.25;2614973;36;20027;-54
2023/02/02 03:14:56;;;;;;;9.50;3.50;;;;;;;7.65;100.00;102017.34;2615400;36;20043;-54
2023/02/02 03:17:25;;;;;;;12.82;3.83;;;;;;;7.55;100.00;102018.84;2614404;36;20066;-54
2023/02/02 03:19:56;;;;;;;16.20;5.03;;;;;;;7.62;100.00;102022.03;2614566;36;20551;-53
2023/02/02 03:22:24;;;;;;;15.77;5.25;;;;;;;7.61;100.00;102020.31;2616882;31;20038;-54
2023/02/02 03:24:52;;;;;;;29.33;5.80;;;;;;;7.54;100.00;102022.47;2616827;36;20062;-53
2023/02/02 03:27:21;;;;;;;23.20;5.40;;;;;;;7.54;100.00;102017.13;2616085;36;20039;-52
2023/02/02 03:29:49;;;;;;;21.98;6.00;;;;;;;7.58;100.00;102024.00;2616452;36;20443;-54
2023/02/02 03:32:17;;;;;;;17.10;5.50;;;;;;;7.60;100.00;102022.13;2615899;36;20027;-53
2023/02/02 03:34:46;;;;;;;21.30;5.53;;;;;;;7.68;100.00;102005.59;2616114;36;20034;-54
2023/02/02 03:37:17;;;;;;;21.33;5.10;;;;;;;7.64;100.00;102010.28;2616832;36;20303;-57
2023/02/02 03:39:46;;;;;;;16.85;5.40;;;;;;;7.67;100.00;102018.13;2617191;36;20038;-55
2023/02/02 03:42:14;;;;;;;19.75;6.05;;;;;;;7.63;100.00;102007.69;2616643;36;20033;-55
2023/02/02 03:44:42;;;;;;;22.15;5.70;;;;;;;7.65;100.00;102012.00;2616963;36;20038;-52
2023/02/02 03:47:11;;;;;;;21.88;4.95;;;;;;;7.60;100.00;102011.41;2616567;36;20027;-55
2023/02/02 03:49:39;;;;;;;18.20;4.57;;;;;;;7.61;100.00;102010.47;2616358;36;20026;-54
2023/02/02 03:52:07;;;;;;;27.13;4.85;;;;;;;7.66;100.00;102003.00;2616905;36;20400;-49
2023/02/02 03:54:39;;;;;;;25.05;5.57;;;;;;;7.56;100.00;102004.50;2617404;36;20439;-50
2023/02/02 03:57:07;;;;;;;16.40;4.68;;;;;;;7.62;100.00;102004.13;2616724;36;20424;-55
2023/02/02 03:59:35;;;;;;;15.68;4.15;;;;;;;7.72;100.00;102001.78;2616877;36;20036;-53
2023/02/02 04:02:03;;;;;;;22.20;5.70;;;;;;;7.65;100.00;101984.34;2616726;36;20756;-52
2023/02/02 04:04:32;;;;;;;27.08;6.80;;;;;;;7.66;100.00;102003.00;2615725;36;20042;-51
2023/02/02 04:07:00;;;;;;;26.90;5.30;;;;;;;7.75;100.00;102001.59;2616452;36;20042;-54
2023/02/02 04:09:29;;;;;;;18.30;5.57;;;;;;;7.77;100.00;101990.81;2616343;36;20034;-55
2023/02/02 04:12:00;;;;;;;20.60;5.43;;;;;;;7.82;100.00;101994.09;2616981;36;20030;-53
2023/02/02 04:14:28;;;;;;;27.40;6.97;;;;;;;7.78;100.00;101995.22;2616921;36;20034;-55
2023/02/02 04:16:56;;;;;;;16.42;5.28;;;;;;;7.74;100.00;101985.63;2616808;36;20446;-52
2023/02/02 04:19:25;;;;;;;21.67;5.60;;;;;;;7.80;100.00;101990.63;2616263;36;20038;-57
2023/02/02 04:21:54;;;;;;;25.60;6.00;;;;;;;7.84;100.00;101986.81;2616558;36;20038;-54
2023/02/02 04:24:22;;;;;;;;;;;;;;;7.89;100.00;101992.75;2616619;36;20033;-56
2023/02/02 04:26:51;;;;;;;27.95;5.70;;;;;;;7.85;100.00;101989.41;2617543;31;19973;-55
2023/02/02 04:29:22;;;;;;;20.77;6.30;;;;;;;7.93;100.00;101991.63;2615951;36;20046;-57
2023/02/02 04:31:50;;;;;;;22.15;5.47;;;;;;;7.89;100.00;101990.06;2616808;31;20034;-57
2023/02/02 04:34:19;;;;;;;21.60;4.70;;;;;;;8.02;100.00;102000.94;2615798;36;20034;-53
2023/02/02 04:36:47;;;;;;;20.45;4.28;;;;;;;7.99;100.00;101996.59;2616694;36;20034;-54
2023/02/02 04:39:15;;;;;;;19.90;4.32;;;;;;;8.05;100.00;102006.09;2616790;36;20045;-60
2023/02/02 04:41:44;;;;;;;17.83;3.72;;;;;;;8.00;100.00;102009.06;2616360;36;20030;-55
2023/02/02 04:44:16;;;;;;;24.25;4.45;;;;;;;8.01;100.00;102010.81;2616706;36;20459;-51
2023/02/02 04:46:47;;;;;;;15.65;3.90;;;;;;;7.97;100.00;102003.88;2615713;36;20118;-54
2023/02/02 04:49:15;;;;;;;16.67;4.10;;;;;;;7.97;100.00;102001.22;2615831;36;20038;-54
2023/02/02 04:51:43;;;;;;;17.55;4.18;;;;;;;8.02;100.00;102001.81;2616413;36;20030;-56
2023/02/02 04:54:11;;;;;;;21.77;5.03;;;;;;;8.01;100.00;102001.88;2616331;36;20061;-52
2023/02/02 04:56:43;;;;;;;22.55;5.28;;;;;;;8.05;100.00;102007.00;2616282;54;20077;-53
2023/02/02 04:59:11;;;;;;;19.05;5.15;;;;;;;8.03;100.00;101998.16;2616365;36;20447;-54
2023/02/02 05:01:40;;;;;;;23.48;4.75;;;;;;;8.19;100.00;102002.63;2616444;36;20045;-53
2023/02/02 05:04:12;;;;;;;12.02;4.30;;;;;;;8.23;100.00;101994.28;2615761;36;20042;-52
2023/02/02 05:06:40;;;;;;;20.10;4.38;;;;;;;8.22;100.00;101994.38;2616632;31;20029;-53
2023/02/02 05:09:09;;;;;;;16.75;4.03;;;;;;;8.21;100.00;101998.00;2616202;31;20065;-53
2023/02/02 05:11:37;;;;;;;17.38;4.40;;;;;;;8.21;100.00;102000.69;2615987;36;20045;-53
2023/02/02 05:14:06;;;;;;;18.52;4.65;;;;;;;8.19;100.00;102007.97;2616207;36;20608;-51
2023/02/02 05:16:34;;;;;;;24.33;4.57;;;;;;;8.14;100.00;102004.69;2616556;36;20058;-53
2023/02/02 05:19:02;;;;;;;16.02;3.83;;;;;;;8.16;100.00;102008.16;2615824;36;20022;-51
2023/02/02 05:21:33;;;;;;;22.65;4.57;;;;;;;8.10;100.00;102013.88;2616583;36;20038;-56
2023/02/02 05:24:02;;;;;;;21.90;4.57;;;;;;;8.15;100.00;102011.78;2615888;36;20042;-55
2023/02/02 05:26:31;;;;;;;22.17;5.10;;;;;;;8.21;100.00;102019.47;2615859;36;20041;-55
2023/02/02 05:28:59;;;;;;;26.40;4.80;;;;;;;8.13;100.00;102019.94;2617113;36;20455;-53
2023/02/02 05:31:28;;;;;;;17.10;4.05;;;;;;;8.16;100.00;102018.91;2616686;31;20375;-55
2023/02/02 05:33:56;;;;;;;;;;;;;;;8.19;100.00;102029.44;2615985;31;20469;-55
2023/02/02 05:36:25;;;;;;;20.38;4.05;;;;;;;8.23;100.00;102017.56;2616383;31;19947;-51
2023/02/02 05:38:56;;;;;;;12.63;3.88;;;;;;;8.02;100.00;102020.59;2616598;36;20042;-56
2023/02/02 05:41:24;;;;;;;19.77;4.35;;;;;;;8.16;100.00;102027.78;2615690;36;20065;-55
2023/02/02 05:43:52;;;;;;;12.75;3.88;;;;;;;8.21;100.00;102023.00;2616460;36;20034;-49
2023/02/02 05:46:21;;;;;;;13.07;3.65;;;;;;;8.17;100.00;102021.47;2615872;36;20045;-56
2023/02/02 05:48:49;;;;;;;15.85;4.32;;;;;;;8.17;100.00;102031.31;2614918;36;20527;-54
2023/02/02 05:51:21;;;;;;;17.88;4.18;;;;;;;8.26;100.00;102030.78;2616116;36;20034;-51
2023/02/02 05:53:50;;;;;;;14.45;4.47;;;;;;;8.18;100.00;102028.56;2615863;36;20061;-51
2023/02/02 05:56:21;;;;;;;15.90;3.97;;;;;;;8.17;100.00;102032.22;2615794;36;20034;-51
2023/02/02 05:58:49;;;;;;;18.90;5.28;;;;;;;8.13;100.00;102029.81;2616018;31;20030;-53
2023/02/02 06:01:20;;;;;;;15.73;4.47;;;;;;;8.01;100.00;102042.09;2616127;36;20034;-53
2023/02/02 06:03:48;;;;;;;16.50;4.00;;;;;;;8.05;100.00;102033.81;2614898;36;20039;-54
2023/02/02 06:06:16;;;;;;;27.35;5.00;;;;;;;7.98;100.00;102032.44;2616441;36;20042;-52
2023/02/02 06:08:45;;;;;;;19.05;5.45;;;;;;;7.97;100.00;102036.06;2615964;36;20026;-54
2023/02/02 06:11:14;;;;;;;19.13;4.30;;;;;;;8.02;100.00;102035.78;2616099;31;20039;-54
2023/02/02 06:13:45;;;;;;;;;;;;;;;7.99;100.00;102044.00;2615763;36;20043;-49
2023/02/02 06:16:13;;;;;;;17.80;4.85;;;;;;;8.04;100.00;102045.47;2616419;36;20431;-52
2023/02/02 06:18:42;;;;;;;22.75;4.63;;;;;;;7.97;100.00;102044.09;2615158;36;20082;-54
2023/02/02 06:21:10;;;;;;;21.80;5.10;;;;;;;7.96;100.00;102039.69;2616481;36;20038;-56
2023/02/02 06:23:44;;;;;;;12.52;4.40;;;;;;;8.12;100.00;102046.84;2616388;31;20556;-53
2023/02/02 06:26:12;;;;;;;15.00;4.40;;;;;;;8.11;100.00;102042.44;2615937;36;20030;-54
2023/02/02 06:28:41;;;;;;;13.17;4.03;;;;;;;8.20;100.00;102049.91;2616215;36;20042;-53
2023/02/02 06:31:12;;;;;;;18.88;4.60;;;;;;;8.06;100.00;102056.97;2616591;36;20038;-51
2023/02/02 06:33:41;;;;;;;19.63;4.25;;;;;;;7.99;100.00;102044.88;2615225;36;20026;-50
2023/02/02 06:36:09;;;;;;;17.90;5.00;;;;;;;8.02;100.00;102055.44;2617149;31;20034;-55
2023/02/02 06:38:38;;;;;;;17.50;5.30;;;;;;;8.02;100.00;102062.59;2616030;31;20038;-51
2023/02/02 06:41:06;;;;;;;21.42;5.18;;;;;;;7.94;100.00;102065.72;2616063;36;20030;-53
2023/02/02 06:43:35;;;;;;;17.30;4.72;;;;;;;8.07;100.00;102060.53;2616206;36;20035;-55
2023/02/02 06:46:03;;;;;;;22.40;4.57;;;;;;;8.14;100.00;102071.75;2616244;31;20038;-54
2023/02/02 06:48:34;;;;;;;18.10;7.47;;;;;;;8.06;100.00;102070.38;2614872;36;20045;-53
2023/02/02 06:51:04;;;;;;;24.63;5.60;;;;;;;8.07;100.00;102080.16;2615443;36;20038;-55
2023/02/02 06:53:32;;;;;;;21.02;5.47;;;;;;;7.99;100.00;102084.22;2617447;31;20065;-48
2023/02/02 06:56:02;;;;;;;22.20;5.38;;;;;;;8.02;100.00;102082.25;2616776;31;20559;-54
2023/02/02 06:58:33;;;;;;;15.98;5.13;;;;;;;8.09;100.00;102081.88;2615720;31;20118;-50
2023/02/02 07:01:06;;;;;;;22.92;6.05;;;;;;;8.07;100.00;102082.81;2614819;36;20042;-49
2023/02/02 07:03:37;;;;;;;13.20;5.30;;;;;;;8.01;100.00;102072.47;2614382;36;20034;-52
2023/02/02 07:06:13;;;;;;;22.77;5.95;;;;;;;8.11;100.00;102075.44;2616544;36;20023;-51
2023/02/02 07:08:41;;;;;;;19.67;5.75;;;;;;;8.21;100.00;102070.41;2616202;31;20034;-50
2023/02/02 07:11:10;;;;;;;22.55;5.53;;;;;;;8.07;100.00;102080.16;2615964;31;20045;-48
2023/02/02 07:13:38;;;;;;;25.33;5.85;;;;;;;8.14;100.00;102074.41;2615025;36;20042;-53
2023/02/02 07:16:08;;;;;;;23.25;7.10;;;;;;;8.19;100.00;102077.72;2616370;36;20034;-53
2023/02/02 07:18:39;;;;;;;16.08;5.25;;;;;;;8.25;100.00;102072.81;2614947;36;20034;-50
2023/02/02 07:21:08;;;;;;;17.05;6.05;;;;;;;8.16;100.00;102083.25;2616014;36;20050;-50
2023/02/02 07:23:36;;;;;;;20.52;6.05;;;;;;;8.12;100.00;102089.75;2615883;36;20451;-50
2023/02/02 07:26:06;;;;;;;18.23;6.20;;;;;;;8.13;100.00;102088.81;2615499;36;20027;-54
2023/02/02 07:28:35;;;;;;;21.00;6.05;;;;;;;8.19;100.00;102088.44;2616055;36;20046;-52
2023/02/02 07:31:13;;;;;;;24.80;7.47;;;;;;;8.22;100.00;102089.09;2617162;36;20426;-53
2023/02/02 07:33:46;;;;;;;15.70;5.73;;;;;;;8.17;100.00;102095.69;2614900;31;20676;-52
2023/02/02 07:36:16;;;;;;;22.08;5.85;;;;;;;8.16;100.00;102104.72;2616540;36;20407;-55
2023/02/02 07:38:45;;;;;;;19.92;6.32;;;;;;;8.11;100.00;102106.78;2615985;31;20125;-51
2023/02/02 07:41:14;;;;;;;19.95;5.85;;;;;;;8.07;100.00;102112.31;2615711;36;20042;-50
2023/02/02 07:43:48;;;;;;;20.08;6.78;;;;;;;8.17;100.00;102122.50;2615978;54;20046;-53
2023/02/02 07:46:18;;;;;;;18.27;5.72;;;;;;;8.17;100.00;102114.47;2615221;36;20038;-49
2023/02/02 07:48:49;;;;;;;28.23;7.53;;;;;;;8.25;100.00;102125.63;2614449;36;20030;-57
2023/02/02 07:51:19;;;;;;;21.50;6.40;;;;;;;8.22;100.00;102131.16;2615605;36;20033;-57
2023/02/02 07:53:48;;;;;;;22.95;7.15;;;;;;;8.22;100.00;102134.69;2615955;36;20041;-50
2023/02/02 07:56:17;;;;;;;;;;;;;;;8.21;100.00;102130.28;2614957;36;20038;-55
2023/02/02 07:58:46;;;;;;;27.48;7.53;;;;;;;8.17;100.00;102127.88;2614787;36;19962;-51
2023/02/02 08:01:18;;;;;;;20.00;6.20;;;;;;;8.27;100.00;102131.75;2616333;36;20030;-55
2023/02/02 08:03:51;;;;;;;24.05;6.53;;;;;;;8.19;100.00;102128.66;2614984;36;20054;-53
2023/02/02 08:06:22;;;;;;;23.63;6.53;;;;;;;8.03;100.00;102134.91;2616505;36;20072;-51
2023/02/02 08:08:51;;;;;;;22.67;6.22;;;;;;;8.19;100.00;102136.72;2616172;31;20239;-50
2023/02/02 08:11:21;;;;;;;34.55;6.65;;;;;;;8.23;100.00;102140.94;2616007;31;20035;-53
2023/02/02 08:13:51;;;;;;;23.63;5.78;;;;;;;8.15;100.00;102141.38;2616304;36;20045;-52
2023/02/02 08:16:20;;;;;;;18.98;6.18;;;;;;;8.11;100.00;102147.00;2616113;31;20034;-56
2023/02/02 08:18:51;;;;;;;23.17;5.90;;;;;;;8.18;100.00;102145.69;2614541;36;20042;-51
2023/02/02 08:21:21;;;;;;;20.02;5.60;;;;;;;8.14;100.00;102153.06;2615704;36;20058;-48
2023/02/02 08:23:50;;;;;;;22.10;6.25;;;;;;;8.20;100.00;102146.47;2615108;36;20034;-54
2023/02/02 08:26:21;;;;;;;19.80;5.50;;;;;;;8.17;100.00;102149.31;2614790;36;20640;-53
2023/02/02 08:28:53;;;;;;;22.42;5.05;;;;;;;8.10;100.00;102153.31;2616456;36;20038;-56
2023/02/02 08:31:23;;;;;;;21.83;4.85;;;;;;;8.33;100.00;102155.56;2615179;36;20077;-53
2023/02/02 08:33:57;;;;;;;28.38;5.07;;;;;;;8.22;100.00;102161.53;2615225;36;20039;-54
2023/02/02 08:36:27;;;;;;;17.02;4.75;;;;;;;8.27;100.00;102168.44;2615994;36;20085;-51
2023/02/02 08:38:56;;;;;;;17.35;4.75;;;;;;;8.20;100.00;102171.50;2616120;36;20033;-54
2023/02/02 08:41:25;;;;;;;22.27;6.53;;;;;;;8.29;100.00;102162.03;2616012;36;20433;-50
2023/02/02 08:43:54;;;;;;;12.32;3.85;;;;;;;8.24;100.00;102173.03;2615333;36;20631;-54
2023/02/02 08:46:22;;;;;;;22.90;4.10;;;;;;;8.23;100.00;102171.31;2615293;31;20045;-55
2023/02/02 08:48:53;;;;;;;11.70;3.83;;;;;;;8.25;100.00;102179.25;2615531;36;20041;-54
2023/02/02 08:51:22;;;;;;;19.08;4.78;;;;;;;8.19;100.00;102180.47;2613688;36;20558;-56
2023/02/02 08:53:50;;;;;;;27.15;5.97;;;;;;;8.20;100.00;102176.84;2614477;36;20035;-56
2023/02/02 08:56:21;;;;;;;11.20;3.67;;;;;;;8.27;100.00;102185.38;2616228;36;20042;-53
2023/02/02 08:58:52;;;;;;;18.73;4.90;;;;;;;8.34;100.00;102192.13;2616347;36;20042;-54
2023/02/02 09:01:23;;;;;;;19.02;4.10;;;;;;;8.38;100.00;102191.00;2616149;36;20034;-53
2023/02/02 09:03:59;;;;;;;11.63;3.58;;;;;;;8.36;100.00;102192.94;2615353;36;20038;-51
2023/02/02 09:06:32;;;;;;;9.10;3.17;;;;;;;8.28;100.00;102197.84;2615847;36;20034;-53
2023/02/02 09:09:01;;;;;;;31.38;3.60;;;;;;;8.29;100.00;102209.44;2616347;36;20470;-51
2023/02/02 09:11:30;;;;;;;22.52;6.07;;;;;;;8.37;100.00;102208.06;2617098;36;20440;-54
2023/02/02 09:14:01;;;;;;;22.33;3.90;;;;;;;8.31;100.00;102213.78;2615585;31;20026;-56
2023/02/02 09:16:29;;;;;;;14.23;3.50;;;;;;;8.30;100.00;102204.00;2616540;31;20034;-51
2023/02/02 09:19:01;;;;;;;19.30;3.75;;;;;;;8.34;100.00;102210.91;2615822;36;20045;-56
2023/02/02 09:21:29;;;;;;;23.27;3.90;;;;;;;8.31;100.00;102216.47;2615972;36;20543;-54
2023/02/02 09:23:57;;;;;;;14.52;3.38;;;;;;;8.38;100.00;102223.19;2616486;36;20561;-53
2023/02/02 09:26:28;;;;;;;14.43;3.20;;;;;;;8.27;100.00;102222.94;2616649;36;20045;-50
2023/02/02 09:28:58;;;;;;;20.77;5.20;;;;;;;8.37;100.00;102228.66;2615778;36;20038;-52
2023/02/02 09:31:28;;;;;;;18.95;4.03;;;;;;;8.47;100.00;102237.09;2616846;36;20451;-53
2023/02/02 09:33:56;;;;;;;17.05;3.95;;;;;;;8.49;100.00;102243.22;2616043;36;20039;-53
2023/02/02 09:36:27;;;;;;;15.85;3.33;;;;;;;8.42;100.00;102243.53;2615541;36;20424;-54
2023/02/02 09:38:56;;;;;;;15.10;3.60;;;;;;;8.57;100.00;102232.91;2615935;36;20110;-53
2023/02/02 09:41:55;;;;;;;9.82;3.00;;;;;;;8.51;100.00;102239.50;2616112;36;20042;-51
2023/02/02 09:44:49;;;;;;;22.23;4.40;;;;;;;8.52;100.00;102243.88;2616016;36;20289;-50
2023/02/02 09:47:21;;;;;;;13.23;3.63;;;;;;;8.61;100.00;102239.81;2616165;31;20038;-48
2023/02/02 09:50:03;;;;;;;19.73;3.70;;;;;;;8.58;100.00;102234.63;2615398;36;20030;-51
2023/02/02 09:52:39;;;;;;;12.05;3.20;;;;;;;8.64;100.00;102245.00;2616151;36;20034;-50
2023/02/02 09:55:15;;;;;;;18.23;3.85;;;;;;;8.64;100.00;102228.88;2616056;36;20035;-52
2023/02/02 09:57:49;;;;;;;19.40;4.72;;;;;;;8.75;100.00;102244.38;2615453;36;20033;-51
2023/02/02 10:00:29;;;;;;;20.48;3.83;;;;;;;8.75;100.00;102247.94;2615642;31;20170;-53
2023/02/02 10:03:03;;;;;;;11.68;3.88;;;;;;;8.77;100.00;102246.03;2616352;36;20027;-50
2023/02/02 10:05:42;;;;;;;14.60;3.40;;;;;;;8.83;100.00;102255.53;2615826;36;20061;-52
2023/02/02 10:08:20;;;;;;;19.85;3.90;;;;;;;8.84;100.00;102259.09;2616242;36;20045;-48
2023/02/02 10:10:51;;;;;;;12.57;4.10;;;;;;;8.82;100.00;102259.19;2615483;36;20042;-52
2023/02/02 10:13:25;;;;;;;15.90;4.00;;;;;;;9.00;100.00;102259.91;2615635;36;20291;-56
2023/02/02 10:16:02;;;;;;;13.82;3.72;;;;;;;8.75;100.00;102268.56;2616367;36;20041;-51
2023/02/02 10:18:38;;;;;;;9.90;3.63;;;;;;;8.65;100.00;102273.56;2615399;36;20472;-54
2023/02/02 10:21:12;;;;;;;17.73;3.90;;;;;;;8.75;100.00;102280.13;2615916;36;20047;-50
2023/02/02 10:23:45;;;;;;;20.58;4.05;;;;;;;8.79;100.00;102274.59;2616362;36;20038;-51
2023/02/02 10:26:19;;;;;;;16.15;4.30;;;;;;;8.80;100.00;102287.06;2615551;36;20061;-55
2023/02/02 10:29:06;;;;;;;16.00;4.03;;;;;;;8.86;100.00;102286.69;2615810;36;20085;-54
2023/02/02 10:31:43;;;;;;;21.33;4.80;;;;;;;8.84;100.00;102294.84;2615759;36;20054;-52
2023/02/02 10:34:18;;;;;;;18.33;4.35;;;;;;;8.93;100.00;102285.41;2615462;36;20142;-53
2023/02/02 10:37:08;;;;;;;13.88;4.35;;;;;;;8.96;100.00;102293.25;2615955;36;20042;-55
2023/02/02 10:39:53;;;;;;;14.13;4.63;;;;;;;8.91;100.00;102293.53;2615706;36;20041;-53
2023/02/02 10:42:34;;;;;;;16.52;4.82;;;;;;;8.98;100.00;102291.38;2615109;36;20045;-52
2023/02/02 10:45:06;;;;;;;17.45;5.53;;;;;;;9.06;100.00;102294.44;2616161;36;20038;-50
2023/02/02 10:47:37;;;;;;;17.90;4.97;;;;;;;8.99;100.00;102295.75;2615982;36;20027;-52
2023/02/02 10:50:18;;;;;;;17.33;4.63;;;;;;;8.93;100.00;102294.31;2615789;31;20118;-53
2023/02/02 10:52:50;;;;;;;17.42;4.50;;;;;;;8.98;100.00;102295.84;2616011;36;20566;-54
2023/02/02 10:55:30;;;;;;;10.75;4.32;;;;;;;8.93;100.00;102293.44;2615852;36;20732;-54
2023/02/02 10:58:10;;;;;;;17.77;6.70;;;;;;;8.93;100.00;102288.94;2615387;36;20026;-54
2023/02/02 11:00:45;;;;;;;16.23;4.88;;;;;;;8.86;100.00;102292.97;2615925;31;20026;-53
2023/02/02 11:03:15;;;;;;;15.15;5.30;;;;;;;8.91;100.00;102290.00;2615441;36;20038;-51
2023/02/02 11:08:34;;;;;;;30.13;5.85;;;;;;;9.01;100.00;102291.19;2614526;36;20038;-53
2023/02/02 11:11:13;;;;;;;13.57;5.30;;;;;;;9.08;100.00;102287.19;2614249;36;20054;-56
2023/02/02 11:13:47;;;;;;;20.60;5.22;;;;;;;9.03;100.00;102285.72;2613415;36;20039;-51
2023/02/02 11:16:25;;;;;;;15.40;4.20;;;;;;;9.18;100.00;102287.47;2614944;36;20038;-49
2023/02/02 11:18:54;;;;;;;12.50;5.13;;;;;;;9.16;100.00;102289.41;2614174;36;20038;-48
2023/02/02 11:21:26;;;;;;;22.48;5.40;;;;;;;8.96;100.00;102292.41;2614742;36;20530;-55
2023/02/02 11:24:02;;;;;;;17.00;4.57;;;;;;;9.06;100.00;102289.06;2616786;36;20483;-52
2023/02/02 11:26:49;;;;;;;12.70;4.25;;;;;;;9.23;100.00;102285.41;2614779;36;20083;-54
2023/02/02 11:29:23;;;;;;;12.05;3.60;;;;;;;9.24;100.00;102287.09;2615861;36;20030;-53
2023/02/02 11:31:52;;;;;;;13.05;3.85;;;;;;;9.35;100.00;102291.84;2615784;36;20030;-55
2023/02/02 11:34:22;;;;;;;13.98;3.72;;;;;;;9.17;100.00;102284.88;2614754;36;20042;-51
2023/02/02 11:37:04;;;;;;;11.88;3.88;;;;;;;9.07;100.00;102290.81;2614975;36;20038;-52
2023/02/02 11:39:32;;;;;;;13.70;4.10;;;;;;;9.24;100.00;102294.31;2615654;36;20038;-52
2023/02/02 11:42:09;;;;;;;16.23;5.50;;;;;;;9.23;100.00;102297.94;2616763;36;20030;-54
2023/02/02 11:44:41;;;;;;;9.13;3.45;;;;;;;9.12;100.00;102295.91;2616719;36;20291;-53
2023/02/02 11:47:09;;;;;;;18.85;4.05;;;;;;;9.24;100.00;102303.22;2617144;36;20753;-54
2023/02/02 11:49:45;;;;;;;19.27;3.97;;;;;;;9.23;100.00;102297.94;2614671;36;20018;-56
2023/02/02 11:52:19;;;;;;;14.75;4.53;;;;;;;9.02;100.00;102303.63;2616319;31;20034;-52
2023/02/02 11:54:50;;;;;;;17.48;4.47;;;;;;;9.21;100.00;102294.50;2616166;36;20034;-51